Date,TemperatureHighF,TemperatureAvgF,TemperatureLowF,DewpointHighF,DewpointAvgF,DewpointLowF,HumidityHigh,HumidityAvg,HumidityLow,PressureMaxIn,PressureMinIn,WindSpeedMaxMPH,WindSpeedAvgMPH,GustSpeedMaxMPH,PrecipitationSumIn
2013-1-1,42.3,38.9,35.4,31.1,28.2,22.5,77,66,54,30.06,29.94,10,1,10,0.00
2013-1-2,37.0,32.9,28.0,28.9,20.1,12.6,72,59,49,30.28,30.03,14,2,14,0.00
2013-1-3,37.8,29.1,22.8,22.6,17.4,12.6,82,62,46,30.30,30.19,9,0,9,0.00
2013-1-4,43.2,32.9,21.9,22.6,20.4,18.7,89,62,41,30.26,30.14,18,2,18,0.00
2013-1-5,44.1,35.8,25.7,30.2,22.1,18.3,76,58,41,30.42,30.19,22,2,23,0.00
2013-1-6,50.2,41.2,27.1,32.0,28.6,25.3,95,63,42,30.23,30.06,15,1,15,0.00
2013-1-7,43.9,38.5,25.0,30.6,26.4,22.3,91,63,49,30.47,30.18,14,2,14,0.00
2013-1-8,54.0,37.5,24.3,34.5,29.5,22.1,94,75,45,30.46,30.39,10,1,10,0.00
2013-1-9,51.8,38.9,28.4,42.3,34.4,26.8,95,85,44,30.42,30.27,15,0,16,0.01
2013-1-10,53.2,46.4,35.6,32.2,29.4,26.2,76,52,37,30.64,30.42,20,2,20,0.00
2013-1-11,43.7,39.5,33.1,40.5,34.9,28.6,96,84,61,30.53,30.13,5,0,5,0.03
2013-1-12,54.0,44.1,40.3,47.5,42.1,39.6,97,93,78,30.21,30.13,4,0,5,0.00
2013-1-13,56.3,48.5,41.2,55.8,47.9,40.5,98,98,97,30.19,30.00,5,0,6,0.01
2013-1-14,59.7,52.4,39.0,58.5,46.6,35.8,98,82,63,30.33,29.97,17,2,17,0.12
2013-1-15,39.0,37.8,34.7,37.2,36.2,33.1,95,94,89,30.38,30.19,9,1,9,0.88
2013-1-16,40.3,36.7,33.6,39.2,35.4,32.4,96,95,93,30.19,29.89,7,1,9,0.32
2013-1-17,42.4,39.9,36.9,39.9,33.4,28.2,97,78,59,30.17,30.00,11,1,11,0.02
2013-1-18,36.9,32.7,25.5,29.7,19.5,11.3,75,59,39,30.53,30.07,20,2,20,0.00
2013-1-19,53.1,40.3,29.5,30.9,26.3,21.7,76,59,41,30.47,30.00,12,1,13,0.00
2013-1-20,57.4,45.3,34.3,32.0,22.7,8.2,66,43,19,30.11,29.86,19,2,21,0.00
2013-1-21,45.9,35.7,29.1,27.7,18.7,11.3,57,50,38,30.13,29.82,19,1,20,0.00
2013-1-22,28.9,19.4,15.6,12.9,-1.0,-6.3,52,40,30,30.34,29.97,21,4,23,0.00
2013-1-23,24.6,18.7,11.7,12.6,1.1,-2.0,72,47,32,30.40,30.19,14,1,14,0.00
2013-1-24,25.2,19.9,15.6,15.8,8.4,0.3,88,64,34,30.56,30.13,22,2,22,0.00
2013-1-25,21.9,18.9,16.2,16.5,7.0,0.1,88,61,41,30.56,30.12,6,0,7,0.00
2013-1-26,31.8,26.5,20.8,23.5,20.2,16.2,86,77,62,30.48,30.13,11,1,13,0.00
2013-1-27,38.7,28.4,22.5,22.6,19.2,16.7,90,69,45,30.64,30.48,9,0,10,0.01
2013-1-28,47.7,36.0,29.5,42.4,32.1,21.9,95,86,73,30.54,30.09,13,1,14,0.08
2013-1-29,68.5,53.4,38.5,53.2,46.8,36.7,96,80,58,30.16,30.00,7,1,7,0.01
2013-1-30,70.7,61.1,54.9,62.1,56.8,50.4,97,86,74,30.01,29.23,16,2,17,0.82
2013-1-31,62.6,42.7,28.8,60.8,27.3,11.7,97,56,34,29.95,29.17,29,6,30,0.74
2013-2-1,31.8,25.0,18.0,24.6,10.4,2.3,91,55,38,30.43,29.83,28,5,29,0.00
2013-2-2,30.0,22.3,13.1,25.2,12.5,2.7,90,67,43,30.44,30.05,11,1,12,0.00
2013-2-3,32.4,28.2,22.1,27.3,24.2,16.7,95,86,55,30.05,29.88,17,1,17,0.01
2013-2-4,35.4,29.4,23.2,22.3,15.6,10.9,66,56,47,30.14,29.93,21,2,21,0.00
2013-2-5,39.9,34.3,28.0,29.1,26.2,21.4,86,73,60,29.98,29.88,5,0,5,0.00
2013-2-6,44.2,36.1,27.3,30.7,26.6,22.3,93,70,49,30.39,29.97,19,2,20,0.00
2013-2-7,38.7,32.6,24.8,29.7,24.8,21.2,89,73,59,30.48,30.23,12,1,12,0.00
2013-2-8,41.4,35.9,31.6,36.5,31.3,21.9,95,84,60,30.23,29.78,27,3,31,0.25
2013-2-9,39.4,33.2,28.4,22.3,17.9,14.4,66,54,37,30.43,29.95,32,6,32,0.00
2013-2-10,43.3,33.3,19.6,27.1,18.4,14.2,89,56,32,30.52,30.27,10,1,10,0.00
2013-2-11,53.1,43.9,35.8,50.0,41.2,27.3,96,90,42,30.27,29.74,12,1,12,0.18
2013-2-12,56.7,47.6,39.4,32.4,28.5,25.7,74,48,32,30.03,29.83,20,2,20,0.00
2013-2-13,45.0,37.1,30.4,36.3,29.8,25.0,94,76,58,29.99,29.69,10,1,10,0.28
2013-2-14,49.6,37.6,30.0,32.0,28.9,25.3,96,73,40,30.06,29.81,11,1,12,0.01
2013-2-15,58.5,42.5,28.9,38.5,31.9,27.1,95,71,34,30.06,29.92,20,2,23,0.10
2013-2-16,37.2,34.4,29.5,33.6,28.1,16.0,95,79,52,30.04,29.87,16,2,17,0.01
2013-2-17,29.7,26.4,22.8,16.9,10.8,4.3,67,52,37,30.25,29.87,26,6,33,0.00
2013-2-18,41.7,29.4,19.0,17.4,9.9,6.4,62,45,28,30.43,30.20,15,2,16,0.00
2013-2-19,43.9,38.7,34.2,39.9,30.0,17.2,90,72,48,30.20,29.76,18,2,18,0.09
2013-2-20,37.8,31.9,23.9,23.9,14.8,7.9,59,49,40,30.21,29.88,25,6,27,0.00
2013-2-21,37.6,28.9,22.6,17.1,13.6,8.1,61,53,41,30.37,30.17,19,4,20,0.00
2013-2-22,31.8,30.3,28.8,29.5,22.6,16.3,92,74,57,30.42,30.25,10,1,10,0.02
2013-2-23,43.3,37.4,31.5,41.7,36.0,29.7,96,95,92,30.25,29.85,8,1,9,0.06
2013-2-24,50.4,41.2,31.8,40.1,30.6,18.1,95,69,39,30.15,29.83,27,4,27,0.00
2013-2-25,46.9,35.6,27.5,26.2,22.3,18.5,84,59,40,30.26,30.14,12,1,12,0.00
2013-2-26,43.3,35.6,26.8,42.3,32.4,23.5,96,88,72,30.26,29.64,22,3,22,0.94
2013-2-27,54.9,45.8,38.5,42.8,37.6,32.7,96,75,48,29.73,29.55,15,2,15,0.02
2013-2-28,46.2,41.9,39.0,36.9,29.7,22.8,85,63,41,29.77,29.67,16,3,16,0.02
2013-3-1,42.3,39.3,35.1,30.2,27.6,23.5,70,63,51,29.93,29.76,16,4,16,0.00
2013-3-2,35.4,32.1,29.1,23.9,21.5,19.0,72,65,54,29.93,29.86,17,4,17,0.00
2013-3-3,39.9,32.5,27.9,21.2,18.8,16.0,72,58,43,29.96,29.83,23,4,23,0.00
2013-3-4,42.8,33.0,27.3,19.9,16.7,13.6,66,52,36,30.08,29.96,21,4,25,0.00
2013-3-5,50.7,38.4,27.7,30.9,20.1,12.6,84,50,23,30.12,29.84,14,2,14,0.00
2013-3-6,37.6,34.0,31.6,34.3,32.0,30.0,96,92,82,30.03,29.63,26,5,27,1.22
2013-3-7,47.1,40.2,32.4,32.0,28.5,25.3,85,64,45,30.19,30.03,23,4,24,0.00
2013-3-8,47.7,41.0,35.4,29.3,27.4,24.8,72,59,46,30.30,30.17,31,6,32,0.00
2013-3-9,59.2,43.7,33.4,29.8,25.9,21.6,79,52,25,30.39,30.28,14,2,15,0.00
2013-3-10,62.6,46.1,28.0,34.3,25.6,18.0,91,52,18,30.36,30.25,8,1,11,0.00
2013-3-11,59.9,50.3,41.7,49.8,44.0,34.3,93,79,66,30.28,29.95,11,2,15,0.00
2013-3-12,57.0,52.2,41.4,55.0,44.8,29.8,95,77,55,29.99,29.72,19,4,19,0.86
2013-3-13,48.4,39.9,29.1,30.7,25.5,17.8,90,58,31,30.10,29.93,22,3,23,0.86
2013-3-14,43.9,36.2,30.7,19.9,16.9,14.0,59,46,30,30.17,30.06,25,5,26,0.00
2013-3-15,57.0,41.4,25.2,33.3,23.9,16.0,84,53,30,30.13,29.81,20,2,20,0.00
2013-3-16,59.9,46.7,36.9,49.3,37.2,31.8,83,70,52,29.94,29.66,13,1,13,0.01
2013-3-17,39.6,36.6,30.4,33.4,29.9,25.7,93,77,60,30.31,29.93,9,1,10,0.00
2013-3-18,36.9,34.7,29.8,35.1,29.7,21.4,95,83,55,30.36,29.92,13,2,13,0.41
2013-3-19,57.9,44.4,34.9,39.2,28.5,5.5,96,63,14,29.95,29.75,26,3,27,0.00
2013-3-20,51.3,43.4,35.1,25.2,13.3,7.7,56,30,20,30.03,29.80,22,4,22,0.00
2013-3-21,39.4,32.4,27.9,27.3,15.2,7.2,85,50,35,29.94,29.80,22,5,22,0.00
2013-3-22,46.2,35.2,26.1,21.9,15.7,10.0,56,45,33,30.04,29.92,22,3,22,0.00
2013-3-23,52.5,40.0,24.6,24.6,21.6,19.2,85,50,29,30.08,29.94,16,2,17,0.00
2013-3-24,41.0,35.4,28.8,30.9,24.4,20.1,94,66,45,30.04,29.69,10,1,10,0.01
2013-3-25,36.1,33.5,31.5,33.8,31.8,30.2,95,93,89,29.74,29.55,11,1,11,0.75
2013-3-26,47.8,40.0,32.0,34.2,30.1,24.6,95,70,42,30.03,29.74,18,3,19,0.08
2013-3-27,47.5,41.8,36.1,29.7,27.7,24.3,71,58,42,30.16,30.02,23,4,24,0.00
2013-3-28,46.9,41.1,31.5,31.5,28.6,25.3,79,62,49,30.27,30.13,21,3,22,0.00
2013-3-29,54.7,45.7,38.5,32.9,30.1,25.9,72,56,35,30.29,30.18,18,2,18,0.00
2013-3-30,59.2,46.0,32.2,33.4,28.5,22.3,86,55,26,30.26,30.14,15,1,15,0.00
2013-3-31,52.5,47.0,40.6,48.7,39.9,28.6,95,77,57,30.16,29.77,10,1,10,0.02
2013-4-1,63.7,47.6,35.2,44.2,35.9,25.0,97,67,37,30.02,29.76,27,3,27,0.01
2013-4-2,48.0,40.9,35.2,25.0,15.1,11.1,55,36,23,30.21,30.02,21,3,21,0.00
2013-4-3,49.8,38.6,25.3,22.8,15.9,9.9,78,43,20,30.43,30.21,23,3,25,0.00
2013-4-4,48.0,37.2,24.8,34.5,19.0,11.1,91,51,23,30.45,30.13,10,1,10,0.10
2013-4-5,64.8,48.8,36.5,37.2,30.9,21.2,95,58,24,30.13,29.85,17,3,17,0.25
2013-4-6,58.3,46.3,35.4,31.8,21.2,15.6,63,38,23,30.36,30.07,14,2,15,0.00
2013-4-7,71.4,53.7,38.1,42.3,35.9,28.4,79,53,32,30.31,30.01,14,2,17,0.00
2013-4-8,81.0,66.7,48.0,50.5,45.2,41.5,80,49,28,30.10,29.96,13,1,13,0.00
2013-4-9,86.7,74.6,59.5,55.8,52.7,50.2,73,48,31,30.10,29.94,16,2,16,0.00
2013-4-10,91.0,79.3,64.8,59.0,54.6,52.3,66,44,29,29.99,29.79,19,2,19,0.00
2013-4-11,86.4,72.5,55.6,60.6,56.6,51.8,88,60,32,29.89,29.74,16,2,16,0.00
2013-4-12,74.5,60.5,51.3,66.7,57.0,49.3,97,89,73,29.82,29.58,15,2,16,0.55
2013-4-13,70.0,56.4,41.4,50.7,40.6,36.9,90,59,31,29.97,29.78,18,2,18,0.00
2013-4-14,66.7,55.5,41.2,44.4,39.4,35.4,89,58,35,30.17,29.97,14,2,16,0.00
2013-4-15,62.2,57.7,53.6,51.1,47.0,42.8,78,67,60,30.31,30.15,12,1,12,0.00
2013-4-16,76.5,63.6,54.7,59.4,54.6,47.5,86,74,54,30.34,30.14,13,1,14,0.00
2013-4-17,76.8,65.8,57.0,61.9,58.6,55.0,97,79,57,30.25,30.14,14,1,14,0.09
2013-4-18,78.1,65.8,58.3,64.9,58.7,55.0,95,79,54,30.25,30.02,12,1,13,0.05
2013-4-19,77.7,66.6,49.8,66.4,60.6,47.3,94,82,64,30.02,29.61,16,2,17,0.95
2013-4-20,59.7,51.9,44.8,47.7,30.8,25.3,92,46,29,30.37,29.80,21,4,21,0.00
2013-4-21,54.9,45.6,37.9,32.0,25.0,19.6,75,45,29,30.63,30.37,15,2,15,0.00
2013-4-22,54.9,45.5,32.2,37.8,34.9,30.4,94,68,50,30.61,30.43,14,2,15,0.00
2013-4-23,62.2,50.2,44.2,44.8,41.4,36.1,91,72,52,30.43,30.15,7,1,11,0.00
2013-4-24,78.6,60.2,41.2,56.3,49.0,39.4,96,70,41,30.16,29.82,26,2,26,0.00
2013-4-25,66.6,53.4,44.1,49.1,34.3,26.1,74,50,24,30.34,30.00,22,3,27,0.00
2013-4-26,66.2,53.3,39.9,41.0,36.5,31.3,93,57,29,30.48,30.33,16,1,16,0.00
2013-4-27,72.0,56.9,40.6,46.0,39.2,34.3,94,57,28,30.44,30.31,11,1,14,0.00
2013-4-28,66.0,55.5,43.2,51.4,43.5,36.9,93,66,35,30.32,30.17,9,1,9,0.02
2013-4-29,58.8,54.8,52.2,57.0,52.7,44.6,96,93,66,30.19,30.07,11,1,11,0.24
2013-4-30,57.6,54.9,52.5,55.6,53.1,48.0,97,94,79,30.31,30.11,12,1,14,0.11
2013-5-1,69.3,57.6,43.5,49.6,42.4,35.2,95,61,32,30.45,30.31,13,1,13,0.00
2013-5-2,66.6,53.3,40.3,48.9,44.7,38.8,97,75,50,30.47,30.35,11,1,11,0.00
2013-5-3,66.2,53.7,42.3,48.6,42.6,39.0,96,69,39,30.41,30.32,14,2,16,0.00
2013-5-4,66.6,55.4,46.2,45.9,42.8,39.2,85,65,44,30.37,30.21,14,2,14,0.00
2013-5-5,61.9,51.9,44.1,46.2,41.5,38.1,84,69,49,30.28,30.18,13,2,13,0.00
2013-5-6,61.0,54.4,49.5,56.7,50.8,44.1,95,87,81,30.21,30.08,13,2,13,0.00
2013-5-7,62.2,59.1,56.8,61.0,57.7,55.6,97,95,92,30.09,29.94,16,2,16,0.66
2013-5-8,72.1,59.2,54.9,58.6,55.8,52.9,98,90,53,30.03,29.95,10,0,12,0.23
2013-5-9,74.8,61.3,53.1,62.4,56.1,52.0,97,85,60,30.03,29.95,12,1,12,0.00
2013-5-10,84.7,68.9,52.3,62.8,57.7,51.4,98,72,40,30.04,29.88,15,1,15,0.23
2013-5-11,78.8,66.4,62.1,69.6,63.1,61.0,97,90,60,29.95,29.72,11,0,12,0.52
2013-5-12,63.0,58.4,46.2,62.1,40.3,29.3,97,54,29,30.07,29.77,20,3,20,0.00
2013-5-13,58.8,49.2,37.0,38.5,29.9,21.7,93,52,25,30.20,30.06,16,2,20,0.00
2013-5-14,63.9,50.4,33.3,41.5,34.1,28.4,95,58,31,30.25,30.08,13,1,13,0.00
2013-5-15,87.6,66.7,49.6,65.5,54.0,40.1,88,65,44,30.08,29.71,9,1,12,0.00
2013-5-16,81.9,73.2,61.9,66.2,60.3,55.4,90,66,45,29.95,29.78,18,2,18,0.01
2013-5-17,84.2,71.7,57.0,59.5,55.1,48.7,92,58,36,30.16,29.94,11,1,11,0.00
2013-5-18,67.3,61.6,57.9,58.8,56.0,51.6,95,83,59,30.27,30.15,10,1,10,0.11
2013-5-19,77.2,65.2,57.9,67.1,62.1,56.5,98,90,67,30.23,30.11,6,0,6,0.02
2013-5-20,82.0,71.2,64.0,70.5,66.4,63.0,96,86,64,30.14,30.00,7,0,9,0.00
2013-5-21,83.7,73.0,65.8,71.8,67.9,64.6,97,85,66,30.03,29.90,8,1,9,0.00
2013-5-22,87.4,76.4,67.6,74.3,69.7,64.0,97,81,61,29.96,29.85,13,1,13,0.01
2013-5-23,81.3,71.7,62.8,69.3,66.6,61.2,96,85,63,29.93,29.77,19,1,19,2.14
2013-5-24,62.8,55.9,47.1,61.7,47.5,33.4,97,74,54,30.19,29.76,22,4,24,0.06
2013-5-25,65.7,53.6,42.8,41.2,35.5,31.8,69,52,32,30.23,30.12,22,4,22,0.00
2013-5-26,72.0,59.1,46.8,43.9,37.2,33.1,77,46,25,30.25,30.15,17,2,19,0.00
2013-5-27,70.7,57.6,44.8,47.8,43.1,39.4,91,63,35,30.31,30.24,8,1,8,0.00
2013-5-31,90.3,84.8,75.7,68.9,65.8,63.7,69,54,45,30.13,30.04,13,1,13,0.00
2013-6-1,92.1,79.5,66.9,71.8,67.1,63.1,88,67,49,30.06,29.94,13,1,13,0.00
2013-6-2,82.9,75.9,68.7,72.3,67.5,63.5,96,76,62,29.94,29.86,14,1,16,0.35
2013-6-3,81.0,71.3,65.7,70.3,65.5,56.8,96,83,60,29.98,29.85,11,1,12,0.66
2013-6-4,75.9,66.0,56.7,57.4,48.8,41.0,87,56,34,30.15,29.98,10,1,10,0.00
2013-6-5,80.4,67.0,51.6,58.6,54.5,50.0,96,67,43,30.20,30.07,8,0,9,0.00
2013-6-6,72.3,66.3,60.8,63.9,59.9,53.1,96,80,69,30.11,29.88,9,1,9,0.49
2013-6-7,70.2,67.4,64.6,68.7,66.3,63.5,97,96,94,29.88,29.62,10,1,15,2.36
2013-6-8,81.9,70.3,64.4,65.3,61.7,56.8,95,76,45,30.12,29.73,10,1,10,0.00
2013-6-9,80.4,72.2,61.9,70.9,65.2,60.4,95,80,60,30.22,30.11,9,1,9,0.00
2013-6-10,80.6,71.7,67.5,75.6,69.8,66.2,97,94,82,30.13,29.82,11,0,11,2.31
2013-6-11,82.2,73.5,65.7,69.3,65.3,63.3,97,77,57,29.88,29.81,16,2,16,0.00
2013-6-12,89.2,77.5,64.8,70.9,66.2,61.7,94,70,47,29.90,29.81,13,1,13,0.00
2013-6-13,86.2,74.8,70.0,73.8,69.1,66.0,96,83,56,29.84,29.49,20,2,20,0.08
2013-6-20,73.4,68.1,64.4,59.0,56.1,54.1,70,66,58,30.29,30.26,3,0,3,0.00
2013-6-21,83.3,70.1,54.9,62.6,56.6,52.2,96,66,39,30.33,30.25,8,0,8,0.00
2013-6-22,88.0,74.0,60.4,68.7,64.6,59.4,97,75,49,30.28,30.17,8,1,8,0.00
2013-6-23,85.5,74.4,67.5,73.6,69.4,65.3,96,85,63,30.21,30.10,7,0,7,1.18
2013-6-24,90.1,76.7,68.7,74.7,70.5,67.3,97,83,53,30.16,30.06,10,1,10,0.03
2013-6-25,91.4,79.5,67.3,74.3,70.1,64.4,97,75,50,30.07,29.93,18,1,18,0.03
2013-6-26,88.5,77.2,67.6,76.5,69.5,64.9,95,79,58,29.96,29.84,11,0,11,0.01
2013-6-27,81.3,73.2,66.9,73.4,69.7,65.7,97,89,76,29.87,29.66,10,1,11,0.00
2013-6-28,88.0,73.6,67.3,73.9,69.3,64.9,97,88,59,29.68,29.53,32,0,32,1.87
2013-6-29,88.2,76.0,64.6,71.2,66.1,61.3,98,75,46,29.73,29.57,10,1,10,0.01
2013-6-30,85.8,77.0,69.4,75.7,72.5,68.2,97,87,68,29.89,29.73,8,0,8,0.00
2013-7-1,82.9,75.6,70.0,74.7,71.4,67.6,96,87,70,30.01,29.88,9,0,9,0.10
2013-7-2,80.8,75.2,72.0,74.8,72.1,70.7,96,90,79,30.20,30.01,9,0,11,0.11
2013-7-3,84.4,74.8,70.7,77.9,72.6,69.4,98,93,76,30.26,30.19,7,0,10,1.20
2013-7-4,89.1,79.7,72.7,76.1,73.0,71.6,97,81,58,30.29,30.19,13,1,13,0.00
2013-7-5,89.2,80.4,71.8,75.7,72.5,70.0,95,78,58,30.26,30.16,11,1,13,0.00
2013-7-6,91.0,81.1,72.5,75.4,72.7,70.2,96,77,54,30.22,30.11,11,1,12,0.00
2013-7-7,90.0,78.7,69.6,77.2,71.7,67.1,96,80,61,30.15,30.03,16,1,16,0.36
2013-7-8,86.0,75.4,69.4,73.0,69.8,67.6,97,84,56,30.15,30.07,7,0,11,0.30
2013-7-9,86.4,76.8,69.3,76.3,72.0,68.0,97,86,69,30.14,30.03,7,0,7,0.01
2013-7-10,88.9,78.0,71.4,77.9,73.6,70.0,96,87,63,30.05,29.89,17,1,17,0.11
2013-7-11,84.9,76.3,71.2,73.9,70.6,67.8,96,84,60,29.96,29.88,11,1,11,0.00
2013-7-12,74.7,68.8,66.2,71.2,66.5,64.0,96,93,81,30.06,29.93,9,1,10,2.68
2013-7-13,86.2,75.6,68.4,74.8,70.3,66.7,96,84,68,30.30,30.06,8,0,8,0.00
2013-7-14,90.9,80.1,72.3,75.9,72.6,70.2,97,80,54,30.37,30.30,11,0,11,0.00
2013-7-15,93.6,81.2,70.2,75.7,72.4,68.9,97,77,51,30.34,30.22,8,1,9,0.00
2013-7-16,92.8,83.4,74.8,75.9,72.1,68.9,91,71,48,30.27,30.19,12,1,12,0.00
2013-7-17,94.3,83.3,73.4,75.6,72.6,68.5,93,72,46,30.25,30.12,9,1,9,0.00
2013-7-18,95.9,84.5,74.5,80.6,76.0,72.9,95,77,50,30.15,30.03,8,1,8,0.00
2013-7-19,95.4,85.4,75.9,79.5,76.0,69.6,94,75,58,30.05,29.91,11,1,11,0.00
2013-7-20,91.9,82.8,75.6,77.2,73.7,69.6,93,75,55,29.94,29.83,14,2,14,0.00
2013-7-21,90.0,78.8,71.2,75.0,71.7,69.3,95,80,55,29.97,29.90,10,1,10,0.06
2013-7-22,89.4,79.1,71.8,76.8,73.1,69.1,97,83,60,29.96,29.79,14,0,14,0.00
2013-7-23,86.2,77.7,71.8,72.5,69.9,66.9,94,78,53,29.81,29.68,13,2,15,0.00
2013-7-24,82.8,76.0,69.3,69.3,65.5,59.0,94,71,54,29.94,29.72,11,1,11,0.00
2013-7-25,79.5,70.2,61.5,62.6,57.0,52.2,88,64,49,30.06,29.94,13,2,13,0.00
2013-7-26,83.7,71.1,60.1,64.6,61.4,58.6,96,74,45,30.12,30.05,9,1,9,0.00
2013-7-27,84.2,71.6,64.8,71.8,67.3,61.9,96,87,62,30.09,29.96,6,0,12,0.78
2013-7-28,84.2,73.3,66.9,72.7,69.1,66.0,97,88,59,30.02,29.92,8,0,8,0.03
2013-7-29,80.6,71.3,62.6,69.1,59.8,53.2,94,70,42,30.19,30.01,9,1,11,0.00
2013-7-30,81.3,70.6,59.7,65.3,60.3,56.1,93,72,48,30.26,30.17,9,1,10,0.00
2013-7-31,79.3,70.8,62.8,70.0,66.1,61.7,96,86,69,30.18,30.05,7,0,7,0.10
2013-8-1,81.7,72.0,66.7,72.7,69.1,65.5,97,91,72,30.05,29.84,7,0,8,0.38
2013-8-2,84.9,74.8,65.1,68.0,65.4,62.4,96,75,50,30.00,29.88,13,1,13,0.00
2013-8-3,79.0,70.7,65.5,70.0,65.7,63.1,96,85,61,30.01,29.95,8,0,8,0.05
2013-8-4,79.3,70.5,60.1,65.8,59.8,54.1,96,72,44,30.06,29.94,15,2,17,0.00
2013-8-5,80.8,68.3,56.8,61.3,56.9,52.0,92,70,38,30.14,30.04,6,0,8,0.00
2013-8-6,71.8,68.3,64.4,67.1,65.0,60.8,95,89,83,30.11,30.04,6,0,6,0.12
2013-8-7,84.4,74.1,67.8,74.1,69.6,65.7,96,86,70,30.10,30.02,9,0,9,0.01
2013-8-8,84.7,76.9,72.7,76.3,72.7,70.2,95,87,72,30.06,30.01,13,0,13,0.10
2013-8-9,88.7,81.0,74.5,77.2,73.8,70.7,95,80,62,30.01,29.88,13,2,14,0.00
2013-8-10,84.7,76.9,68.5,71.6,67.0,59.5,92,73,46,30.12,29.97,8,1,8,0.00
2013-8-11,84.6,75.5,69.1,70.9,68.4,65.1,94,80,56,30.14,30.04,6,0,8,0.00
2013-8-12,88.3,77.1,67.8,72.7,68.8,63.5,97,78,47,30.06,29.94,10,1,10,0.00
2013-8-13,86.0,75.9,68.7,73.2,70.3,66.2,96,84,56,29.94,29.77,16,1,17,0.60
2013-8-14,73.2,65.7,56.7,67.1,53.1,48.6,91,65,48,30.13,29.85,16,2,22,0.00
2013-8-15,79.5,65.0,53.4,57.4,52.8,48.2,94,68,36,30.22,30.12,7,0,7,0.00
2013-8-16,78.3,65.8,52.9,64.0,55.9,51.8,97,73,45,30.23,30.16,6,0,6,0.00
2013-8-17,78.6,67.4,54.7,63.0,57.5,53.6,97,73,46,30.29,30.22,9,1,9,0.00
2013-8-18,70.9,66.6,61.9,64.4,62.7,59.9,96,88,70,30.26,30.19,8,0,8,0.18
2013-8-19,73.4,66.8,59.5,67.5,63.4,58.6,97,89,78,30.21,30.11,8,0,9,0.00
2013-8-20,86.2,74.0,62.1,71.6,67.0,61.0,98,81,54,30.19,30.12,6,0,7,0.00
2013-8-21,87.4,75.9,66.9,74.1,70.3,66.0,98,84,61,30.23,30.11,8,0,9,0.03
2013-8-22,85.6,77.3,69.8,71.2,68.7,66.2,97,77,54,30.13,29.96,12,1,13,0.00
2013-8-23,75.0,69.5,59.7,69.4,65.4,58.6,96,87,70,30.15,29.97,10,0,10,0.16
2013-8-24,83.7,68.7,58.5,65.1,60.4,57.6,97,77,48,30.36,30.14,10,0,10,0.01
2013-8-25,81.7,68.8,58.5,66.0,59.6,55.8,97,75,47,30.44,30.30,9,0,9,0.00
2013-8-26,85.6,72.4,59.5,66.6,61.5,56.1,90,70,46,30.32,30.05,13,1,13,0.00
2013-8-27,88.5,78.2,68.7,73.2,68.8,64.8,88,74,56,30.05,29.91,13,1,13,0.00
2013-8-28,77.7,74.0,71.6,73.2,71.0,68.2,96,90,79,29.95,29.85,9,0,9,0.18
2013-8-29,84.6,75.2,69.6,71.4,69.8,67.6,97,84,60,30.06,29.86,8,1,8,0.00
2013-8-30,85.6,75.5,67.8,72.0,69.2,66.4,96,82,58,30.07,29.93,13,1,13,0.00
2013-8-31,88.2,77.4,68.7,74.8,70.7,66.6,94,81,64,29.95,29.83,10,1,10,0.00
2013-9-1,90.1,77.7,66.7,74.3,70.6,65.5,97,80,55,29.88,29.80,7,0,7,0.00
2013-9-2,88.7,77.2,68.7,74.8,71.1,66.7,97,83,58,29.85,29.76,14,1,15,0.14
2013-9-3,83.5,76.1,68.5,72.5,63.5,56.1,93,67,43,29.99,29.77,13,2,14,0.00
2013-9-4,82.2,68.4,56.5,60.6,56.3,50.2,93,68,37,30.12,29.99,10,1,10,0.00
2013-9-5,81.9,70.4,56.8,63.7,58.3,48.9,97,68,46,30.16,30.04,13,1,13,0.00
2013-9-6,77.4,64.3,55.6,53.2,49.2,43.9,90,60,34,30.29,30.16,10,1,10,0.00
2013-9-7,79.3,65.0,51.4,64.6,58.0,50.2,97,80,58,30.17,29.97,12,1,12,0.00
2013-9-8,85.5,74.0,62.8,66.9,63.8,60.4,96,73,51,30.08,29.90,12,1,12,0.00
2013-9-9,78.6,70.1,62.1,67.8,58.6,49.6,89,67,54,30.23,30.08,10,1,10,0.00
2013-9-10,90.0,78.3,70.7,76.1,71.5,67.6,93,81,59,30.21,30.12,9,1,9,0.00
2013-9-11,91.9,80.5,70.7,76.5,72.6,69.4,97,79,51,30.18,30.03,11,0,11,0.00
2013-9-12,89.8,75.2,68.5,75.0,70.0,66.4,97,85,59,30.03,29.78,17,1,17,0.33
2013-9-13,76.3,68.5,60.4,68.0,58.0,49.6,97,71,42,29.97,29.74,16,2,16,0.00
2013-9-14,68.7,58.4,48.4,50.0,46.5,44.6,93,66,44,30.19,29.97,13,1,13,0.00
2013-9-15,75.6,59.9,44.2,58.5,51.6,43.2,97,77,51,30.26,30.12,11,1,11,0.00
2013-9-16,70.9,62.2,54.9,60.6,57.1,53.4,96,84,61,30.26,30.07,12,1,12,0.05
2013-9-17,68.9,56.7,45.1,55.2,46.3,39.2,96,71,35,30.45,30.25,9,1,9,0.00
2013-9-18,70.3,54.9,41.2,51.4,46.3,40.1,97,76,40,30.37,30.21,8,0,8,0.00
2013-9-19,76.1,61.4,48.0,59.9,54.2,46.9,97,79,55,30.23,30.11,9,0,9,0.00
2013-9-20,79.9,65.3,52.5,63.5,58.4,51.3,97,80,54,30.12,29.99,9,0,10,0.00
2013-9-21,73.6,65.2,59.0,65.1,61.2,56.5,96,87,69,30.01,29.72,12,0,12,1.61
2013-9-22,70.9,63.0,56.3,60.8,54.4,47.8,97,76,50,29.98,29.76,13,1,13,0.00
2013-9-23,64.8,56.2,47.5,48.9,46.0,42.8,93,70,50,30.12,29.98,8,1,11,0.00
2013-9-24,72.7,55.4,43.5,54.5,47.3,42.3,97,77,46,30.14,29.98,11,1,11,0.00
2013-9-25,73.8,57.2,45.7,56.3,48.7,43.7,97,77,39,30.02,29.91,9,0,9,0.00
2013-9-26,74.5,60.3,51.4,56.7,52.8,49.1,97,79,48,30.10,29.95,7,0,7,0.00
2013-9-27,69.8,59.4,50.4,60.3,55.4,49.3,97,87,65,30.27,30.10,6,0,6,0.00
2013-9-28,69.6,59.6,53.4,56.1,54.1,52.0,97,83,58,30.33,30.25,8,0,8,0.00
2013-9-29,71.1,57.7,46.4,58.8,53.1,45.1,98,86,60,30.25,30.09,6,0,6,0.00
2013-9-30,75.0,59.4,47.5,59.0,53.0,46.8,98,82,51,30.12,30.01,10,0,10,0.00
2013-10-1,81.0,65.0,53.2,66.6,58.3,52.0,97,81,49,30.11,30.00,8,0,9,0.00
2013-10-2,84.2,67.7,54.3,66.2,59.7,53.2,98,79,46,30.12,30.03,12,1,12,0.00
2013-10-3,81.9,68.5,57.2,68.5,62.5,56.1,97,83,57,30.15,30.07,6,0,6,0.00
2013-10-4,86.2,69.9,58.5,69.1,63.7,57.6,98,83,49,30.12,30.04,9,0,9,0.00
2013-10-5,87.3,72.9,62.4,70.0,65.9,61.5,98,81,50,30.12,30.03,8,0,8,0.00
2013-10-6,86.2,73.6,63.0,69.8,66.1,61.9,97,79,51,30.06,29.95,11,0,11,0.00
2013-10-7,72.7,65.3,55.6,70.0,61.3,46.8,96,87,68,30.09,29.83,19,1,19,1.52
2013-10-8,65.1,56.0,47.7,51.6,47.5,45.0,94,74,51,30.30,30.09,12,1,12,0.00
2013-10-9,59.7,55.0,52.0,51.8,49.5,46.2,94,82,72,30.34,30.22,14,1,14,0.21
2013-10-10,56.7,54.0,51.8,55.6,52.7,50.4,96,95,93,30.22,30.01,11,2,11,2.15
2013-10-11,61.3,58.5,54.7,60.4,57.5,53.6,97,96,96,30.01,29.96,11,1,11,3.72
2013-10-12,66.2,61.3,59.5,60.8,59.2,57.6,97,93,80,30.18,30.00,13,2,13,0.21
2013-10-13,62.4,59.6,55.6,58.8,57.0,52.9,96,91,84,30.34,30.18,11,1,11,0.05
2013-10-14,69.6,58.7,52.3,58.3,54.0,51.3,96,85,62,30.36,30.25,7,1,7,0.00
2013-10-15,71.1,57.9,47.8,57.4,51.4,44.4,98,82,42,30.27,30.12,7,0,7,0.00
2013-10-16,70.7,63.4,59.2,63.0,59.7,56.7,96,88,76,30.12,29.94,5,0,6,0.00
2013-10-17,74.5,65.6,59.2,65.5,61.6,55.2,98,88,71,29.95,29.76,13,0,13,0.00
2013-10-18,64.8,55.3,45.7,55.2,45.2,41.5,96,71,46,30.05,29.86,18,1,18,0.00
2013-10-19,63.9,53.7,43.0,57.7,50.4,41.9,98,89,69,30.03,29.81,11,0,11,0.00
2013-10-20,62.1,51.1,40.6,50.0,38.7,34.3,96,65,38,30.13,29.89,17,2,18,0.00
2013-10-21,65.5,49.7,36.1,46.4,41.8,35.1,98,78,42,30.18,29.99,9,0,9,0.00
2013-10-22,63.7,53.1,44.2,51.3,45.8,35.4,94,77,52,30.00,29.85,10,0,10,0.00
2013-10-23,55.2,48.3,43.0,43.5,38.1,33.4,94,69,44,29.93,29.68,10,1,12,0.02
2013-10-24,49.3,43.1,35.4,36.5,31.1,25.9,85,64,40,30.16,29.93,21,2,21,0.00
2013-10-25,52.5,42.7,34.5,34.0,31.2,29.3,84,65,46,30.35,30.16,13,2,16,0.00
2013-10-26,55.8,42.1,26.8,32.9,29.9,25.3,96,66,36,30.33,29.97,16,1,16,0.00
2013-10-27,59.7,46.3,35.6,40.5,36.4,32.5,94,71,42,30.17,29.98,13,1,13,0.00
2013-10-28,63.5,46.0,34.3,45.1,39.0,33.3,97,80,43,30.30,30.16,6,0,7,0.00
2013-10-29,63.9,47.6,36.0,46.6,41.0,34.9,97,81,47,30.40,30.29,4,0,5,0.00
2013-10-30,64.0,53.4,46.0,56.3,50.6,43.9,97,90,75,30.35,30.17,8,0,8,0.04
2013-10-31,67.3,59.9,51.8,60.6,56.6,50.5,98,89,78,30.21,29.81,11,0,11,0.01
2013-11-1,75.0,65.6,56.7,63.9,59.9,55.2,96,83,52,29.81,29.63,20,-2,20,0.14
2013-11-2,65.8,56.6,49.5,56.1,46.0,38.3,96,70,47,29.91,29.68,14,1,17,0.00
2013-11-3,55.4,47.6,40.1,41.4,33.3,22.5,87,60,28,30.47,29.91,19,2,19,0.00
2013-11-4,44.4,37.3,30.0,29.7,23.9,20.5,85,59,40,30.65,30.47,11,1,12,0.00
2013-11-5,55.4,45.5,33.3,46.9,39.2,29.3,90,79,66,30.63,30.48,6,0,6,0.00
2013-11-6,69.3,56.4,48.0,54.0,50.0,45.9,93,80,57,30.48,30.09,10,0,10,0.00
2013-11-7,60.4,52.6,43.0,55.0,45.4,23.5,97,78,46,30.11,29.91,23,2,23,0.02
2013-11-8,49.5,40.0,29.7,30.0,26.6,23.2,87,61,37,30.34,30.11,18,2,21,0.00
2013-11-9,55.2,41.1,26.2,31.1,28.2,24.4,95,64,36,30.38,30.06,13,1,13,0.00
2013-11-10,61.7,49.6,40.5,36.9,30.2,27.1,65,48,29,30.26,29.98,24,3,24,0.00
2013-11-11,57.0,46.7,31.8,33.1,30.3,27.1,86,54,38,30.33,30.02,11,1,11,0.00
2013-11-12,50.4,40.0,30.2,37.8,23.2,13.8,69,51,41,30.42,30.00,25,3,25,0.00
2013-11-13,41.5,33.4,26.8,21.7,19.4,17.4,75,57,40,30.50,30.40,16,2,16,0.00
2013-11-14,55.6,36.4,22.8,26.4,21.0,15.1,85,59,23,30.40,30.24,7,0,7,0.00
2013-11-15,59.4,41.8,26.2,42.1,29.2,23.2,92,65,27,30.30,30.21,7,0,7,0.09
2013-11-16,50.9,47.9,43.0,49.1,46.5,41.9,97,95,91,30.35,30.25,5,0,5,0.37
2013-11-17,61.2,56.0,50.0,57.4,54.1,49.1,98,93,86,30.25,29.78,10,0,10,0.00
2013-11-18,67.3,58.5,49.3,60.8,39.2,23.2,97,56,19,29.98,29.73,23,3,28,0.23
2013-11-19,49.3,42.9,36.9,28.4,26.6,25.2,64,53,43,30.39,29.97,21,3,21,0.00
2013-11-20,45.7,36.2,27.9,28.4,24.9,22.3,92,65,41,30.58,30.39,10,1,10,0.00
2013-11-21,49.1,40.0,27.5,39.6,33.4,25.3,94,78,63,30.58,30.41,5,0,5,0.00
2013-11-22,62.4,53.8,44.1,53.4,47.3,39.2,86,79,68,30.41,30.02,16,1,16,0.00
2013-11-23,56.7,43.1,30.6,49.1,27.5,11.3,76,55,38,30.22,30.05,24,5,24,0.00
2013-11-24,30.6,25.8,22.3,11.3,5.8,1.6,54,42,34,30.54,30.22,34,5,34,0.00
2013-11-25,35.6,27.5,17.4,12.9,9.6,7.2,75,48,34,30.59,30.35,12,1,12,0.00
2013-11-26,42.6,34.7,31.6,41.9,27.6,11.3,97,78,39,30.35,29.63,17,1,17,1.76
2013-11-27,38.8,35.7,27.9,36.3,30.3,13.8,96,81,55,30.07,29.54,27,5,27,0.77
2013-11-28,37.0,29.3,24.1,25.0,16.5,11.7,84,60,44,30.49,30.07,20,2,20,0.00
2013-11-29,39.9,31.4,21.9,24.6,20.9,19.2,92,67,45,30.73,30.47,19,1,19,0.00
2013-11-30,36.1,29.5,20.5,26.2,20.8,17.6,89,71,52,30.73,30.39,5,0,5,0.00
2013-12-1,50.2,35.5,21.4,32.9,27.3,19.6,95,74,48,30.39,30.03,4,0,4,0.00
2013-12-2,47.7,42.4,38.5,39.6,36.6,32.4,88,80,71,30.04,29.90,3,0,3,0.00
2013-12-3,56.3,43.9,36.7,40.1,37.1,34.2,92,78,53,30.01,29.90,9,0,9,0.00
2013-12-4,55.8,47.1,36.1,49.8,43.1,34.5,95,86,75,30.10,30.01,7,0,7,0.00
2013-12-5,69.1,59.4,51.8,60.3,55.8,48.9,95,88,72,30.09,29.95,15,1,15,0.00
2013-12-6,64.8,49.4,37.2,63.0,47.9,35.6,96,94,88,30.19,29.91,18,2,19,0.87
2013-12-7,39.7,35.9,30.0,36.0,29.5,21.0,95,78,62,30.56,30.15,17,3,17,0.19
2013-12-8,30.6,28.1,26.2,29.1,23.7,19.2,95,84,69,30.61,30.30,10,1,11,0.13
2013-12-9,33.3,31.6,30.6,32.0,30.5,29.1,97,96,94,30.33,30.05,4,0,4,0.06
2013-12-10,36.9,31.3,25.0,33.1,28.7,21.2,97,90,69,30.24,30.00,14,1,15,0.17
2013-12-11,40.6,27.6,18.0,24.3,21.1,16.5,95,79,45,30.42,30.24,9,0,9,0.08
2013-12-12,30.9,25.5,19.0,22.5,15.0,9.9,94,66,44,30.45,30.26,14,2,15,0.00
2013-12-13,40.1,30.9,19.2,28.0,17.6,11.3,88,60,38,30.32,30.23,10,1,10,0.04
2013-12-14,38.3,34.0,29.5,34.9,30.4,25.2,96,87,78,30.34,29.73,9,1,10,0.69
2013-12-15,45.3,35.8,26.6,37.0,29.6,22.1,95,79,58,29.97,29.65,20,2,20,0.04
2013-12-16,35.4,33.1,28.2,26.8,24.4,21.6,85,70,63,30.20,29.96,10,1,10,0.00
2013-12-17,38.7,34.6,32.2,34.2,29.7,25.2,94,82,74,30.17,29.95,8,0,8,0.04
2013-12-18,40.5,32.2,24.3,31.1,24.4,20.3,95,75,49,30.24,30.01,15,1,15,0.00
2013-12-19,60.1,41.5,23.5,32.0,27.2,21.4,94,62,31,30.22,30.09,10,1,11,0.00
2013-12-20,59.4,51.2,38.5,43.5,34.5,28.6,69,53,39,30.13,30.02,11,1,12,0.00
2013-12-21,70.5,61.2,52.2,61.0,51.5,41.9,82,71,58,30.05,29.92,22,2,22,0.00
2013-12-22,70.9,63.9,60.3,63.7,60.1,57.7,95,88,72,30.05,29.86,20,2,20,0.18
2013-12-23,61.5,53.6,37.4,60.6,49.3,27.7,97,86,66,30.25,29.94,20,2,20,0.70
2013-12-24,38.7,32.3,21.9,27.3,19.0,6.8,72,58,40,30.50,30.22,24,4,24,0.00
2013-12-25,31.8,23.8,18.7,18.3,11.3,8.2,81,59,42,30.59,30.40,10,1,10,0.00
2013-12-26,44.1,30.0,19.9,24.8,20.5,17.4,92,70,41,30.40,30.24,9,0,9,0.00
2013-12-27,49.1,32.9,22.3,25.7,22.3,19.0,91,69,34,30.44,30.33,8,0,9,0.00
2013-12-28,56.3,39.0,23.7,31.6,26.4,20.8,91,64,34,30.35,30.13,10,0,10,0.00
2013-12-29,47.8,43.2,36.7,44.6,39.0,28.8,96,86,52,30.13,29.56,13,1,13,1.22
2013-12-30,44.1,36.3,31.8,39.6,30.0,20.8,97,79,63,30.20,29.84,17,2,17,0.00
2013-12-31,44.6,33.9,26.4,28.8,21.1,16.2,83,60,41,30.35,30.12,17,2,21,0.00
2014-1-1,45.9,33.8,24.1,30.7,24.9,16.7,90,71,47,30.43,30.14,10,0,10,0.00
2014-1-2,36.7,31.3,27.3,32.4,29.3,25.7,96,92,83,30.14,29.63,8,1,8,0.01